Data for 03/11/2013

Time Sea-Level Adjusted Pressure Absolute Pressure Temperature Relative Humidity Dew Point   
(mb) (inHg) (mb) (inHg) (C) (F) (%) (C) (F)
00:05 1019 30.09 849 25.07 3.6 38.6 47 -6.7 19.9
00:10 1019 30.09 849 25.07 3.5 38.4 47 -6.9 19.6
00:15 1020 30.12 849 25.07 3.5 38.2 48 -6.6 20
00:20 1020 30.12 849 25.07 3.3 37.9 51 -6 21.2
00:25 1020 30.12 849 25.07 3 37.5 50 -6.4 20.4
00:30 1020 30.12 849 25.07 3 37.3 52 -5.9 21.5
00:35 1020 30.12 849 25.07 2.8 37.1 53 -5.9 21.4
00:40 1020 30.12 849 25.07 2.9 37.2 54 -5.6 21.9
00:45 1020 30.12 849 25.07 2.7 36.8 58 -4.8 23.4
00:50 1020 30.12 849 25.07 2.7 36.8 57 -5 23
00:55 1020 30.12 849 25.07 2.8 37.1 55 -5.3 22.5
01:00 1020 30.12 849 25.07 2.9 37.2 54 -5.5 22.1
01:05 1019 30.09 849 25.07 3 37.4 56 -4.8 23.3
01:10 1019 30.09 849 25.07 2.8 37 59 -4.4 24.2
01:15 1019 30.09 849 25.07 2.5 36.5 62 -4 24.9
01:20 1020 30.12 849 25.07 2.3 36.1 65 -3.6 25.4
01:25 1020 30.12 849 25.07 2.2 36 64 -3.9 24.9
01:30 1020 30.12 849 25.07 2.2 36 66 -3.4 25.9
01:35 1019 30.09 849 25.07 2.2 36 66 -3.6 25.5
01:40 1020 30.12 849 25.07 2.2 35.9 66 -3.5 25.7
01:45 1020 30.12 849 25.07 2.3 36.1 65 -3.6 25.6
01:50 1020 30.12 849 25.07 2.2 36 66 -3.6 25.5
01:55 1020 30.12 849 25.07 2.2 36 63 -4.1 24.7
02:00 1020 30.12 849 25.07 2.3 36.2 64 -3.8 25.1
02:05 1020 30.12 849 25.07 2.1 35.9 65 -3.8 25.2
02:10 1020 30.12 849 25.07 1.8 35.3 64 -4.2 24.4
02:15 1019 30.09 849 25.07 1.8 35.3 66 -3.9 24.9
02:20 1020 30.12 849 25.07 1.7 35 64 -4.3 24.3
02:25 1020 30.12 849 25.07 2 35.5 64 -4.1 24.5
02:30 1019 30.09 849 25.07 2.1 35.7 64 -4 24.7
02:35 1019 30.09 849 25.07 2.1 35.8 65 -3.7 25.3
02:40 1019 30.09 849 25.07 2 35.7 66 -3.6 25.5
02:45 1019 30.09 849 25.07 1.9 35.4 66 -3.8 25.1
02:50 1019 30.09 848 25.04 1.9 35.4 65 -3.9 24.9
02:55 1019 30.09 848 25.04 1.8 35.3 66 -3.9 25
03:00 1019 30.09 848 25.04 1.8 35.2 65 -4 24.7
03:05 1019 30.09 848 25.04 2 35.6 64 -4 24.7
03:10 1019 30.09 848 25.04 2 35.6 63 -4.4 24.2
03:15 1019 30.09 848 25.04 2 35.7 62 -4.4 24
03:20 1019 30.09 848 25.04 2.1 35.8 62 -4.4 24
03:25 1019 30.09 848 25.04 2.1 35.8 62 -4.5 24
03:30 1019 30.09 848 25.04 2.1 35.8 62 -4.4 24
03:35 1019 30.09 848 25.04 2.1 35.7 62 -4.4 24.1
03:40 1019 30.09 848 25.04 2.1 35.7 63 -4.3 24.2
03:45 1019 30.09 848 25.04 1.9 35.5 63 -4.4 24.1
03:50 1019 30.09 848 25.04 2 35.5 63 -4.3 24.2
03:55 1019 30.09 848 25.04 2 35.5 63 -4.3 24.2
04:00 1019 30.09 848 25.04 1.9 35.4 64 -4.2 24.4
04:05 1019 30.09 848 25.04 1.8 35.2 64 -4.2 24.4
04:10 1019 30.09 848 25.04 1.6 34.9 65 -4.2 24.4
04:15 1019 30.09 848 25.04 1.5 34.6 65 -4.4 24.2
04:20 1019 30.09 848 25.04 1.5 34.7 64 -4.6 23.6
04:25 1019 30.09 848 25.04 1.5 34.8 63 -4.7 23.5
04:30 1019 30.09 848 25.04 1.7 35 62 -4.9 23.2
04:35 1019 30.09 848 25.04 1.8 35.3 61 -4.9 23.2
04:40 1019 30.09 848 25.04 1.9 35.4 62 -4.6 23.7
04:45 1019 30.09 848 25.04 1.6 34.9 64 -4.4 24.1
04:50 1019 30.09 848 25.04 1.4 34.5 66 -4.2 24.4
04:55 1019 30.09 848 25.04 1.2 34.2 66 -4.4 24.1
05:00 1019 30.09 848 25.04 1.2 34.2 65 -4.6 23.6
05:05 1019 30.09 848 25.04 1.4 34.5 64 -4.6 23.7
05:10 1019 30.09 848 25.04 1.4 34.6 64 -4.6 23.7
05:15 1019 30.09 848 25.04 1.4 34.6 64 -4.7 23.6
05:20 1019 30.09 848 25.04 1.5 34.6 64 -4.7 23.6
05:25 1019 30.09 848 25.04 1.5 34.6 64 -4.7 23.6
05:30 1019 30.09 848 25.04 1.3 34.4 65 -4.6 23.8
05:35 1019 30.09 848 25.04 1.2 34.1 66 -4.5 23.9
05:40 1019 30.09 848 25.04 1 33.8 67 -4.5 23.9
05:45 1019 30.09 848 25.04 0.9 33.6 66 -4.7 23.5
05:50 1019 30.09 848 25.04 0.9 33.6 66 -4.7 23.5
05:55 1019 30.09 848 25.04 0.9 33.7 66 -4.7 23.5
06:00 1019 30.09 848 25.04 1 33.8 66 -4.8 23.4
06:05 1019 30.09 848 25.04 1 33.9 66 -4.6 23.7
06:10 1019 30.09 848 25.04 0.9 33.7 67 -4.5 23.9
06:15 1019 30.09 848 25.04 0.7 33.3 68 -4.5 23.9
06:20 1019 30.09 848 25.04 0.5 32.9 69 -4.5 23.9
06:25 1019 30.09 848 25.04 0.3 32.6 70 -4.6 23.7
06:30 1019 30.09 848 25.04 0.3 32.6 68 -4.9 23.1
06:35 1019 30.09 848 25.04 0.8 33.4 64 -5.3 22.5
06:40 1019 30.09 848 25.04 1.1 34 64 -5 23.1
06:45 1019 30.09 848 25.04 0.9 33.6 68 -4.4 24.2
06:50 1019 30.09 848 25.04 0.4 32.8 70 -4.5 23.9
06:55 1019 30.09 848 25.04 0.5 32.8 70 -4.4 24
07:00 1019 30.09 848 25.04 0.5 32.9 69 -4.6 23.8
07:05 1019 30.09 848 25.04 0.6 33.2 66 -4.9 23.1
07:10 1019 30.09 848 25.04 0.8 33.4 65 -5 23
07:15 1019 30.09 848 25.04 0.9 33.6 63 -5.5 22.2
07:20 1019 30.09 848 25.04 1.2 34.1 63 -5.1 22.8
07:25 1019 30.09 848 25.04 1 33.8 64 -5 23
07:30 1019 30.09 848 25.04 0.8 33.4 65 -5.1 22.9
07:35 1019 30.09 848 25.04 0.9 33.6 65 -5 22.9
07:40 1019 30.09 848 25.04 1 33.7 64 -5.1 22.9
07:45 1019 30.09 848 25.04 1.1 34.1 64 -4.9 23.1
07:50 1019 30.09 848 25.04 1.2 34.2 65 -4.7 23.5
07:55 1019 30.09 848 25.04 1.3 34.4 64 -4.9 23.3
08:00 1019 30.09 848 25.04 1.4 34.6 62 -5 23
08:05 1019 30.09 848 25.04 1.7 35.1 58 -5.6 21.9
08:10 1019 30.09 848 25.04 2.1 35.8 56 -5.8 21.6
08:15 1019 30.09 848 25.04 2.3 36.2 56 -5.6 21.9
08:20 1019 30.09 848 25.04 2.4 36.4 56 -5.4 22.2
08:25 1019 30.09 848 25.04 2.5 36.4 57 -5.3 22.4
08:30 1019 30.09 848 25.04 2.5 36.6 57 -5.2 22.6
08:35 1019 30.09 848 25.04 2.5 36.6 57 -5.2 22.6
08:40 1019 30.09 848 25.04 2.7 36.9 57 -5.1 22.9
08:45 1019 30.09 848 25.04 2.5 36.5 58 -4.9 23.2
08:50 1019 30.09 849 25.07 2.4 36.3 58 -5.1 22.8
08:55 1019 30.09 848 25.04 2.4 36.4 57 -5.1 22.8
09:00 1019 30.09 848 25.04 2.6 36.7 57 -5.1 22.8
09:05 1019 30.09 849 25.07 2.8 37 57 -5 23
09:10 1019 30.09 849 25.07 2.9 37.1 55 -5.2 22.6
09:15 1019 30.09 849 25.07 3.2 37.7 53 -5.5 22.1
09:20 1019 30.09 849 25.07 3.4 38.1 50 -5.9 21.4
09:25 1019 30.09 848 25.04 3.6 38.5 50 -5.9 21.4
09:30 1019 30.09 849 25.07 3.7 38.6 50 -5.8 21.6
09:35 1019 30.09 849 25.07 3.7 38.7 50 -5.8 21.5
09:40 1019 30.09 849 25.07 3.7 38.7 51 -5.5 22.1
09:45 1019 30.09 849 25.07 3.8 38.8 50 -5.8 21.6
09:50 1019 30.09 849 25.07 3.9 39 49 -5.8 21.6
09:55 1019 30.09 849 25.07 3.9 39.1 49 -5.9 21.4
10:00 1019 30.09 849 25.07 4 39.1 49 -5.9 21.4
10:05 1019 30.09 849 25.07 4 39.2 48 -6.1 21.1
10:10 1020 30.12 849 25.07 4 39.3 48 -6.1 21
10:15 1020 30.12 849 25.07 4.3 39.7 47 -6 21.2
10:20 1020 30.12 849 25.07 4.4 39.9 50 -5.2 22.6
10:25 1020 30.12 849 25.07 3.7 38.6 49 -6 21.2
10:30 1020 30.12 849 25.07 3.9 39 49 -6 21.3
10:35 1020 30.12 849 25.07 4.4 39.9 47 -6 21.3
10:40 1020 30.12 849 25.07 4.7 40.4 44 -6.6 20.1
10:45 1020 30.12 849 25.07 5.2 41.4 41 -6.9 19.6
10:50 1020 30.12 849 25.07 5.2 41.3 40 -7.5 18.6
10:55 1020 30.12 849 25.07 5.6 42.1 38 -7.5 18.5
11:00 1020 30.12 849 25.07 5.6 42.1 37 -7.9 17.8
11:05 1020 30.12 849 25.07 6 42.9 36 -8 17.6
11:10 1020 30.12 849 25.07 5.9 42.7 34 -8.7 16.4
11:15 1019 30.09 849 25.07 6.2 43.1 31 -9.6 14.7
11:20 1019 30.09 849 25.07 6.4 43.6 29 -10.2 13.7
11:25 1019 30.09 849 25.07 6.2 43.1 28 -11.1 12
11:30 1019 30.09 849 25.07 6.4 43.5 29 -10.5 13.1
11:35 1019 30.09 848 25.04 6.3 43.3 26 -12 10.4
11:40 1019 30.09 848 25.04 6.6 43.8 26 -11.8 10.8
11:45 1019 30.09 848 25.04 6.6 43.8 26 -11.6 11
11:50 1019 30.09 848 25.04 6.7 44.1 28 -10.6 12.9
11:55 1019 30.09 848 25.04 6.5 43.6 28 -10.9 12.3
12:00 1019 30.09 848 25.04 6.3 43.4 26 -11.7 11
12:05 1019 30.09 848 25.04 6.6 43.9 27 -11.3 11.6
12:10 1019 30.09 848 25.04 6.6 43.9 27 -11.1 12
12:15 1019 30.09 848 25.04 6.3 43.4 26 -11.8 10.7
12:20 1019 30.09 848 25.04 6 42.8 25 -12.4 9.7
12:25 1019 30.09 848 25.04 5.9 42.6 26 -12.1 10.2
12:30 1019 30.09 848 25.04 5.7 42.3 26 -12.2 10
12:35 1019 30.09 848 25.04 5.7 42.2 27 -12.1 10.1
12:40 1019 30.09 848 25.04 5.6 42.1 26 -12.3 9.9
12:45 1019 30.09 848 25.04 5.8 42.5 26 -12.1 10.2
12:50 1019 30.09 848 25.04 5.9 42.6 26 -12.3 9.8
12:55 1019 30.09 848 25.04 5.5 42 26 -12.7 9.1
13:00 1019 30.09 848 25.04 5.7 42.2 26 -12.5 9.6
13:05 1019 30.09 848 25.04 6 42.7 25 -12.4 9.6
13:10 1019 30.09 848 25.04 5.9 42.7 26 -12.3 9.8
13:15 1019 30.09 848 25.04 6.2 43.2 24 -12.8 9
13:20 1019 30.09 848 25.04 6 42.8 26 -12.3 9.9
13:25 1019 30.09 848 25.04 5.8 42.5 25 -12.8 8.9
13:30 1019 30.09 848 25.04 5.8 42.5 24 -13.2 8.2
13:35 1019 30.09 848 25.04 5.8 42.5 25 -13 8.7
13:40 1019 30.09 848 25.04 6.1 43 25 -12.7 9.1
13:45 1019 30.09 848 25.04 6.2 43.1 25 -12.7 9.1
13:50 1019 30.09 848 25.04 6.1 43 24 -13.2 8.3
13:55 1019 30.09 848 25.04 6.5 43.7 24 -12.6 9.2
14:00 1019 30.09 848 25.04 6.6 43.8 23 -13.1 8.4
14:05 1019 30.09 848 25.04 6.6 43.8 23 -13.4 7.9
14:10 1019 30.09 848 25.04 6.6 43.9 22 -13.5 7.8
14:15 1019 30.09 848 25.04 6.6 43.9 23 -13.2 8.2
14:20 1019 30.09 848 25.04 6.8 44.2 22 -13.4 7.8
14:25 1019 30.09 848 25.04 6.7 44.1 22 -13.6 7.5
14:30 1019 30.09 848 25.04 6.7 44 22 -13.8 7.2
14:35 1019 30.09 848 25.04 6.3 43.4 21 -14.3 6.3
14:40 1019 30.09 848 25.04 6.5 43.8 21 -14.4 6.1
14:45 1019 30.09 848 25.04 6.6 43.8 21 -14.4 6.2
14:50 1019 30.09 848 25.04 6.5 43.7 21 -14.3 6.3
14:55 1019 30.09 848 25.04 6.6 43.8 22 -13.5 7.7
15:00 1019 30.09 848 25.04 6.5 43.8 31 -9.6 14.7
15:05 1019 30.09 848 25.04 5.2 41.4 36 -8.8 16.2
15:10 1019 30.09 848 25.04 4.4 39.9 35 -9.6 14.7
15:15 1019 30.09 848 25.04 4.8 40.6 33 -10.3 13.5
15:20 1019 30.09 848 25.04 5 40.9 34 -9.7 14.5
15:25 1019 30.09 848 25.04 4.9 40.8 33 -10 14
15:30 1019 30.09 848 25.04 5.3 41.6 31 -10.7 12.8
15:35 1019 30.09 848 25.04 5.1 41.1 33 -9.8 14.3
15:40 1019 30.09 848 25.04 4.6 40.3 35 -9.6 14.8
15:45 1019 30.09 848 25.04 4.2 39.6 36 -9.5 14.9
15:50 1019 30.09 848 25.04 4.4 39.9 36 -9.3 15.3
15:55 1019 30.09 848 25.04 4.6 40.3 34 -10.1 13.8
16:00 1019 30.09 848 25.04 5.1 41.1 32 -10.2 13.7
16:05 1019 30.09 848 25.04 5.1 41.2 33 -10 14
16:10 1019 30.09 848 25.04 5 41.1 32 -10.5 13.2
16:15 1019 30.09 848 25.04 4.7 40.5 31 -11.1 12
16:20 1019 30.09 849 25.07 4.2 39.5 32 -11.2 11.8
16:25 1019 30.09 849 25.07 4.2 39.5 32 -11.2 11.8
16:30 1020 30.12 849 25.07 4.3 39.8 31 -11.3 11.7
16:35 1020 30.12 849 25.07 4.3 39.8 32 -10.8 12.5
16:40 1020 30.12 849 25.07 4.1 39.4 32 -11.2 11.9
16:45 1020 30.12 849 25.07 4.2 39.5 32 -11.1 12
16:50 1020 30.12 849 25.07 4.2 39.6 32 -11.2 11.8
16:55 1020 30.12 849 25.07 4.2 39.6 32 -11 12.1
17:00 1020 30.12 849 25.07 4.5 40.2 32 -10.9 12.3
17:05 1020 30.12 849 25.07 4.4 39.9 32 -10.9 12.3
17:10 1020 30.12 849 25.07 4.3 39.7 31 -11.3 11.7
17:15 1020 30.12 849 25.07 4.4 39.9 32 -10.9 12.4
17:20 1020 30.12 849 25.07 4.2 39.5 32 -10.9 12.3
17:25 1020 30.12 849 25.07 4.2 39.5 32 -11 12.1
17:30 1020 30.12 849 25.07 4.2 39.5 32 -11 12.2
17:35 1020 30.12 849 25.07 4.1 39.4 32 -11.1 12.1
17:40 1020 30.12 849 25.07 4.1 39.3 32 -11.3 11.7
17:45 1020 30.12 849 25.07 4.1 39.3 32 -11.1 12
17:50 1020 30.12 850 25.1 4.1 39.4 33 -10.9 12.4
17:55 1020 30.12 850 25.1 3.9 39 34 -10.7 12.8
18:00 1020 30.12 850 25.1 3.4 38.1 36 -10.2 13.6
18:05 1020 30.12 850 25.1 3.1 37.6 37 -10.3 13.5
18:10 1020 30.12 850 25.1 2.9 37.2 38 -10.1 13.9
18:15 1021 30.15 850 25.1 2.7 36.8 39 -10 14
18:20 1021 30.15 850 25.1 2.5 36.5 40 -9.8 14.3
18:25 1021 30.15 850 25.1 2.4 36.3 41 -9.7 14.5
18:30 1021 30.15 850 25.1 2.2 36 41 -9.6 14.7
18:35 1021 30.15 850 25.1 2.1 35.8 41 -9.8 14.4
18:40 1021 30.15 850 25.1 2.1 35.7 42 -9.7 14.6
18:45 1021 30.15 850 25.1 1.9 35.5 42 -9.7 14.6
18:50 1021 30.15 850 25.1 1.8 35.3 42 -9.6 14.7
18:55 1021 30.15 850 25.1 1.7 35.1 43 -9.5 14.8
19:00 1021 30.15 850 25.1 1.5 34.8 45 -9.2 15.4
19:05 1021 30.15 850 25.1 1.3 34.3 46 -9.1 15.6
19:10 1021 30.15 850 25.1 1.1 33.9 46 -9.3 15.2
19:15 1021 30.15 850 25.1 1 33.9 46 -9.4 15.1
19:20 1021 30.15 850 25.1 1 33.8 46 -9.4 15.1
19:25 1021 30.15 851 25.13 1 33.7 46 -9.3 15.3
19:30 1021 30.15 851 25.13 0.9 33.6 46 -9.4 15.1
19:35 1021 30.15 851 25.13 0.8 33.5 47 -9.4 15.1
19:40 1021 30.15 851 25.13 0.8 33.5 46 -9.5 14.9
19:45 1021 30.15 851 25.13 0.8 33.4 48 -9.1 15.6
19:50 1021 30.15 851 25.13 0.5 32.8 48 -9.2 15.4
19:55 1022 30.18 851 25.13 0.3 32.6 48 -9.5 14.9
20:00 1022 30.18 851 25.13 0.3 32.6 48 -9.5 14.9
20:05 1022 30.18 851 25.13 0.3 32.5 51 -8.6 16.4
20:10 1022 30.18 851 25.13 -0.3 31.4 54 -8.4 16.8
20:15 1022 30.18 851 25.13 -0.7 30.7 57 -8.2 17.3
20:20 1022 30.18 851 25.13 -0.9 30.3 59 -8 17.6
20:25 1022 30.18 851 25.13 -1.4 29.5 61 -8 17.6
20:30 1022 30.18 851 25.13 -1.7 28.9 62 -8.1 17.4
20:35 1022 30.18 851 25.13 -2 28.3 62 -8.4 16.9
20:40 1022 30.18 851 25.13 -2.2 28 62 -8.5 16.7
20:45 1022 30.18 851 25.13 -2.4 27.7 62 -8.7 16.4
20:50 1022 30.18 851 25.13 -2.6 27.3 63 -8.8 16.2
20:55 1022 30.18 851 25.13 -2.8 26.9 62 -9.1 15.6
21:00 1022 30.18 851 25.13 -3.1 26.4 63 -9.2 15.4
21:05 1022 30.18 851 25.13 -3.3 26 63 -9.4 15.1
21:10 1022 30.18 852 25.16 -3.5 25.6 63 -9.5 14.9
21:15 1022 30.18 851 25.13 -3.8 25.2 64 -9.7 14.6
21:20 1022 30.18 852 25.16 -3.9 24.9 64 -9.8 14.4
21:25 1022 30.18 852 25.16 -4.1 24.6 64 -10 14
21:30 1022 30.18 852 25.16 -4.3 24.2 64 -10.1 13.9
21:35 1023 30.21 852 25.16 -4.5 23.8 65 -10.1 13.8
21:40 1023 30.21 852 25.16 -4.7 23.6 66 -10.2 13.7
21:45 1023 30.21 852 25.16 -4.7 23.5 65 -10.3 13.4
21:50 1023 30.21 852 25.16 -4.7 23.5 65 -10.3 13.5
21:55 1023 30.21 852 25.16 -4.8 23.4 65 -10.4 13.3
22:00 1023 30.21 852 25.16 -4.8 23.4 65 -10.4 13.3
22:05 1023 30.21 852 25.16 -4.9 23.2 66 -10.3 13.4
22:10 1023 30.21 852 25.16 -4.9 23.1 66 -10.4 13.3
22:15 1023 30.21 852 25.16 -5 23 66 -10.4 13.3
22:20 1023 30.21 852 25.16 -5 23 66 -10.5 13.2
22:25 1023 30.21 852 25.16 -5.1 22.9 66 -10.5 13.2
22:30 1023 30.21 852 25.16 -5.1 22.8 66 -10.5 13.2
22:35 1023 30.21 852 25.16 -5.2 22.7 66 -10.5 13
22:40 1023 30.21 852 25.16 -5.2 22.6 66 -10.6 12.9
22:45 1023 30.21 852 25.16 -5.2 22.6 66 -10.7 12.8
22:50 1023 30.21 852 25.16 -5.2 22.6 66 -10.6 12.8
22:55 1023 30.21 852 25.16 -5.2 22.6 65 -10.8 12.6
23:00 1023 30.21 852 25.16 -5.2 22.6 65 -10.8 12.6
23:05 1023 30.21 852 25.16 -5.3 22.5 65 -10.8 12.6
23:10 1023 30.21 853 25.19 -5.3 22.4 65 -10.9 12.4
23:15 1023 30.21 853 25.19 -5.4 22.4 66 -10.8 12.5
23:20 1023 30.21 853 25.19 -5.4 22.3 65 -10.9 12.4
23:25 1023 30.21 853 25.19 -5.4 22.3 66 -10.9 12.5
23:30 1023 30.21 853 25.19 -5.5 22.2 66 -10.9 12.3
23:35 1023 30.21 853 25.19 -5.5 22.1 66 -10.9 12.3
23:40 1024 30.24 853 25.19 -5.5 22.1 66 -10.9 12.3
23:45 1024 30.24 853 25.19 -5.6 21.9 66 -10.9 12.4
23:50 1024 30.24 853 25.19 -5.6 21.8 66 -11 12.2
23:55 1024 30.24 853 25.19 -5.7 21.8 67 -11 12.3
24:00 1023 30.21 853 25.19 -5.8 21.6 67 -11 12.1